Time;durP1;ratioP1;P1;durP2;ratioP2;P2;SDS_P1;SDS_P2;PMS_P1;PMS_P2;Temp;Humidity;BMP_temperature;BMP_pressure;BME280_temperature;BME280_humidity;BME280_pressure;Samples;Min_cycle;Max_cycle;Signal;HPM_P1;HPM_P2
2023/04/10 00:01:47;;;;;;;10.90;8.50;;;;;;;7.04;75.35;153169.16;5076005;28;20503;-77
2023/04/10 00:04:14;;;;;;;13.20;9.67;;;;;;;7.17;74.90;153202.75;5057367;28;20426;-78
2023/04/10 00:06:41;;;;;;;11.20;8.80;;;;;;;7.13;75.28;153191.09;5061463;28;20445;-78
2023/04/10 00:09:08;;;;;;;11.00;8.20;;;;;;;7.00;75.54;153158.84;5079319;28;20446;-77
2023/04/10 00:11:34;;;;;;;13.60;9.70;;;;;;;6.89;76.57;153130.44;5078323;28;20450;-78
2023/04/10 00:14:01;;;;;;;12.43;9.43;;;;;;;6.85;76.68;153120.13;5059957;28;20879;-77
2023/04/10 00:16:28;;;;;;;12.20;8.80;;;;;;;6.86;77.17;153122.69;5071272;28;20545;-77
2023/04/10 00:18:56;;;;;;;12.33;9.40;;;;;;;6.79;77.47;153103.31;5074841;28;20457;-77
2023/04/10 00:21:22;;;;;;;12.03;9.80;;;;;;;6.73;77.40;153089.13;5077158;28;20506;-78
2023/04/10 00:23:49;;;;;;;11.33;9.17;;;;;;;6.61;78.56;153058.16;5075466;28;20435;-77
2023/04/10 00:26:16;;;;;;;12.63;9.70;;;;;;;6.58;77.74;153050.41;5091514;28;20449;-77
2023/04/10 00:28:43;;;;;;;11.13;9.20;;;;;;;6.54;78.16;153041.38;5076736;28;20480;-78
2023/04/10 00:31:10;;;;;;;11.50;8.50;;;;;;;6.51;78.89;153033.63;5094303;28;20567;-77
2023/04/10 00:33:37;;;;;;;12.37;10.30;;;;;;;6.44;79.93;153014.28;5075150;28;20473;-78
2023/04/10 00:36:06;;;;;;;13.00;9.47;;;;;;;6.38;79.58;152998.81;5078852;28;20452;-77
2023/04/10 00:38:33;;;;;;;14.03;10.40;;;;;;;6.39;79.15;153001.38;5065520;28;20420;-78
2023/04/10 00:40:59;;;;;;;12.50;9.13;;;;;;;6.40;79.69;153003.97;5065657;28;20446;-77
2023/04/10 00:43:26;;;;;;;14.17;10.47;;;;;;;6.35;80.06;152991.06;5070524;28;20499;-78
2023/04/10 00:45:53;;;;;;;11.80;9.80;;;;;;;6.35;79.41;152991.06;5040733;28;20803;-77
2023/04/10 00:48:20;;;;;;;10.50;8.47;;;;;;;6.35;79.98;152991.06;5067599;28;20441;-77
2023/04/10 00:50:46;;;;;;;14.00;10.33;;;;;;;6.30;79.84;152979.41;5069928;28;20434;-77
2023/04/10 00:53:15;;;;;;;12.67;8.83;;;;;;;6.30;79.98;152978.16;5093514;28;20469;-77
2023/04/10 00:55:41;;;;;;;13.97;9.70;;;;;;;6.26;80.94;152969.13;5043044;28;20496;-77
2023/04/10 00:58:12;;;;;;;11.33;9.30;;;;;;;6.21;80.46;152956.22;5056535;28;20985;-77
2023/04/10 01:00:39;;;;;;;12.67;9.80;;;;;;;6.22;81.54;152957.53;5076199;28;20539;-77
2023/04/10 01:03:06;;;;;;;11.30;8.90;;;;;;;6.21;80.09;152954.94;5060523;28;20455;-77
2023/04/10 01:05:38;;;;;;;11.50;9.00;;;;;;;6.18;80.47;152947.19;5093299;28;20449;-77
2023/04/10 01:08:11;;;;;;;11.23;9.30;;;;;;;6.21;80.76;152954.94;5050716;28;20759;-78
2023/04/10 01:10:46;;;;;;;11.27;9.27;;;;;;;6.21;80.26;152954.94;5083702;28;20461;-77
2023/04/10 01:13:17;;;;;;;14.23;10.57;;;;;;;6.16;80.51;152943.31;5094332;28;20471;-78
2023/04/10 01:15:48;;;;;;;11.43;9.20;;;;;;;6.13;81.28;152936.88;5058384;28;20474;-78
2023/04/10 01:18:19;;;;;;;12.27;9.63;;;;;;;6.05;80.94;152916.25;5056543;28;20435;-77
2023/04/10 01:20:46;;;;;;;10.97;8.40;;;;;;;6.08;81.25;152923.97;5071906;28;20469;-77
2023/04/10 01:23:25;;;;;;;13.87;9.90;;;;;;;6.09;80.83;152926.53;5094151;28;20450;-77
2023/04/10 01:25:56;;;;;;;13.30;10.07;;;;;;;6.07;82.11;152920.09;5072141;28;20457;-77
2023/04/10 01:28:56;;;;;;;12.50;9.70;;;;;;;6.01;82.39;152905.88;5072131;28;20453;-77
2023/04/10 01:31:28;;;;;;;11.40;9.07;;;;;;;5.99;83.99;152900.75;5073995;28;20979;-77
2023/04/10 01:33:58;;;;;;;11.57;8.90;;;;;;;5.97;81.99;152895.59;5073541;28;20515;-77
2023/04/10 01:36:28;;;;;;;10.77;8.50;;;;;;;5.97;80.52;152894.28;5049093;28;20465;-77
2023/04/10 01:38:55;;;;;;;13.13;8.80;;;;;;;6.00;80.83;152902.03;5074464;28;20964;-78
2023/04/10 01:41:22;;;;;;;10.27;8.37;;;;;;;5.99;79.86;152900.75;5056362;28;20449;-78
2023/04/10 01:43:51;;;;;;;10.43;8.10;;;;;;;6.00;81.78;152903.34;5070951;28;20442;-78
2023/04/10 01:46:20;;;;;;;10.83;8.90;;;;;;;5.94;82.47;152887.84;5067930;28;20547;-78
2023/04/10 01:48:47;;;;;;;10.30;8.20;;;;;;;5.91;80.66;152880.09;5046060;28;21009;-78
2023/04/10 01:51:15;;;;;;;11.50;8.50;;;;;;;6.12;79.20;152934.28;5072703;28;20464;-78
2023/04/10 01:53:43;;;;;;;9.97;7.77;;;;;;;6.21;78.67;152954.94;5071075;28;20816;-77
2023/04/10 01:56:10;;;;;;;11.20;9.00;;;;;;;6.03;81.33;152911.09;5054944;28;20458;-77
2023/04/10 01:58:43;;;;;;;11.47;8.67;;;;;;;5.91;81.26;152880.09;5056594;28;20446;-77
2023/04/10 02:01:10;;;;;;;13.47;9.37;;;;;;;5.82;81.16;152856.88;5068201;28;20446;-78
2023/04/10 02:03:38;;;;;;;11.27;8.60;;;;;;;5.83;81.69;152858.13;5089506;28;20832;-77
2023/04/10 02:06:11;;;;;;;12.13;8.70;;;;;;;5.75;81.91;152837.47;5049971;28;20450;-77
2023/04/10 02:08:42;;;;;;;11.73;8.53;;;;;;;5.80;81.38;152851.66;5058549;28;20782;-77
2023/04/10 02:11:14;;;;;;;9.30;8.30;;;;;;;5.80;81.08;152851.66;5071960;28;20553;-84
2023/04/10 02:13:41;;;;;;;9.00;8.10;;;;;;;5.75;81.40;152838.78;5058782;28;20835;-84
2023/04/10 02:16:09;;;;;;;11.30;7.70;;;;;;;5.71;81.61;152828.47;5052511;28;20510;-84
2023/04/10 02:18:38;;;;;;;10.83;8.00;;;;;;;5.68;82.23;152820.75;5035142;28;20450;-84
2023/04/10 02:21:06;;;;;;;12.40;9.20;;;;;;;5.65;82.06;152811.69;5084900;28;20462;-84
2023/04/10 02:23:33;;;;;;;10.33;8.10;;;;;;;5.65;82.51;152811.69;5058266;28;20519;-84
2023/04/10 02:26:06;;;;;;;7.97;6.80;;;;;;;5.67;81.68;152818.16;5045130;28;20461;-83
2023/04/10 02:28:33;;;;;;;9.30;7.87;;;;;;;5.76;81.73;152841.38;5053908;28;20455;-84
2023/04/10 02:30:59;;;;;;;10.50;8.07;;;;;;;5.74;82.01;152836.22;5055667;28;20545;-84
2023/04/10 02:33:26;;;;;;;11.03;8.07;;;;;;;5.74;81.44;152836.22;5055610;28;20791;-84
2023/04/10 02:35:54;;;;;;;10.37;7.20;;;;;;;5.77;80.93;152843.94;5070645;28;20552;-84
2023/04/10 02:38:22;;;;;;;12.10;8.43;;;;;;;5.79;80.86;152849.13;5072480;28;20446;-84
2023/04/10 02:40:49;;;;;;;10.30;7.80;;;;;;;5.75;81.43;152838.78;5038488;28;20449;-84
2023/04/10 02:43:17;;;;;;;11.20;7.70;;;;;;;5.75;81.19;152838.78;5038179;28;21036;-84
2023/04/10 02:45:45;;;;;;;9.40;7.47;;;;;;;5.72;82.00;152831.03;5037112;28;20866;-84
2023/04/10 02:48:16;;;;;;;11.90;8.20;;;;;;;5.70;81.97;152825.88;5053151;28;20500;-84
2023/04/10 02:50:45;;;;;;;10.60;8.07;;;;;;;5.75;81.79;152838.78;5062123;28;20810;-84
2023/04/10 02:53:14;;;;;;;9.37;7.27;;;;;;;5.76;81.45;152841.38;5047196;28;20837;-84
2023/04/10 02:55:41;;;;;;;10.90;7.87;;;;;;;5.72;82.05;152831.03;5037259;28;20459;-84
2023/04/10 02:58:08;;;;;;;9.90;7.77;;;;;;;5.72;82.17;152831.03;5054611;28;20496;-84
2023/04/10 03:00:35;;;;;;;9.43;7.67;;;;;;;5.70;81.96;152825.88;5065133;28;20954;-84
2023/04/10 03:03:18;;;;;;;11.77;8.30;;;;;;;5.72;82.06;152829.78;5053049;28;21003;-84
2023/04/10 03:05:49;;;;;;;10.47;7.77;;;;;;;5.65;82.57;152813.00;5052195;28;20489;-83
2023/04/10 03:08:22;;;;;;;11.83;8.90;;;;;;;5.63;83.00;152807.84;5043678;28;20495;-84
2023/04/10 03:10:50;;;;;;;11.20;8.67;;;;;;;5.59;83.62;152796.25;5065445;28;20517;-84
2023/04/10 03:13:17;;;;;;;9.67;7.97;;;;;;;5.61;83.60;152801.41;5048907;28;20461;-84
2023/04/10 03:15:43;;;;;;;10.77;7.90;;;;;;;5.65;82.82;152813.00;5088449;28;20572;-83
2023/04/10 03:18:10;;;;;;;10.57;8.70;;;;;;;5.63;82.57;152807.84;5058705;28;20556;-84
2023/04/10 03:20:40;;;;;;;10.93;8.70;;;;;;;5.60;83.22;152800.09;5049042;28;20470;-84
2023/04/10 03:23:07;;;;;;;11.30;9.70;;;;;;;5.57;82.90;152792.38;5052862;28;20529;-84
2023/04/10 03:25:35;;;;;;;12.17;8.37;;;;;;;5.56;83.38;152789.75;5039212;28;20977;-84
2023/04/10 03:28:04;;;;;;;11.47;8.33;;;;;;;5.57;82.91;152791.06;5044021;28;20804;-84
2023/04/10 03:30:34;;;;;;;10.73;8.53;;;;;;;5.52;83.00;152780.78;5061413;28;20964;-84
2023/04/10 03:33:00;;;;;;;11.17;8.13;;;;;;;5.69;81.28;152823.34;5073496;28;20836;-84
2023/04/10 03:35:27;;;;;;;9.83;7.87;;;;;;;5.62;82.26;152803.97;5057996;28;20855;-84
2023/04/10 03:37:54;;;;;;;9.60;7.73;;;;;;;5.65;81.65;152813.00;5059932;28;20445;-83
2023/04/10 03:40:21;;;;;;;11.10;8.30;;;;;;;5.58;82.07;152794.97;5038673;28;20522;-84
2023/04/10 03:42:50;;;;;;;11.23;8.00;;;;;;;5.59;82.20;152797.50;5039691;28;20459;-84
2023/04/10 03:45:17;;;;;;;10.83;8.37;;;;;;;5.52;82.48;152779.47;5028237;28;20796;-84
2023/04/10 03:47:43;;;;;;;11.40;8.00;;;;;;;5.44;83.67;152760.13;5054682;28;20457;-83
2023/04/10 03:50:13;;;;;;;9.27;8.00;;;;;;;5.38;84.46;152744.66;5073544;28;21065;-84
2023/04/10 03:52:48;;;;;;;13.70;9.07;;;;;;;5.34;86.20;152733.06;5072670;28;20446;-83
2023/04/10 03:55:17;;;;;;;10.97;8.70;;;;;;;5.31;87.73;152725.31;5060448;28;20843;-84
2023/04/10 03:57:45;;;;;;;11.10;8.67;;;;;;;5.26;86.95;152712.44;5055161;28;20439;-84
2023/04/10 04:00:15;;;;;;;13.30;10.10;;;;;;;5.20;86.20;152696.94;5050111;28;20490;-84
2023/04/10 04:02:49;;;;;;;10.70;8.33;;;;;;;5.14;85.93;152682.78;5068599;28;20798;-84
2023/04/10 04:05:26;;;;;;;10.00;8.27;;;;;;;5.12;85.42;152676.31;5073855;28;21620;-84
2023/04/10 04:08:12;;;;;;;11.90;9.50;;;;;;;5.13;85.05;152680.22;5073620;28;20461;-84
2023/04/10 04:11:02;;;;;;;12.80;9.80;;;;;;;5.16;84.99;152686.66;5055492;28;20462;-84
2023/04/10 04:13:54;;;;;;;12.83;9.27;;;;;;;5.20;84.37;152696.94;5052942;28;20439;-84
2023/04/10 04:16:38;;;;;;;12.87;8.50;;;;;;;5.19;84.99;152694.41;5046585;28;20484;-83
2023/04/10 04:19:13;;;;;;;12.70;9.30;;;;;;;5.15;86.16;152684.06;5074695;28;20430;-84
2023/04/10 04:21:59;;;;;;;14.17;9.10;;;;;;;5.09;85.86;152669.88;5057595;28;20454;-84
2023/04/10 04:24:42;;;;;;;11.47;9.00;;;;;;;5.04;86.09;152655.69;5073246;28;20446;-84
2023/04/10 04:27:20;;;;;;;13.73;9.77;;;;;;;5.08;84.95;152666.03;5066695;28;20458;-84
2023/04/10 04:30:10;;;;;;;14.63;10.30;;;;;;;5.03;86.04;152654.41;5057457;28;20457;-84
2023/04/10 04:32:56;;;;;;;12.23;8.87;;;;;;;5.03;86.03;152653.16;5061444;28;20477;-84
2023/04/10 04:35:33;;;;;;;13.30;8.40;;;;;;;5.11;84.77;152673.78;5027078;28;20985;-84
2023/04/10 04:38:29;;;;;;;12.43;8.93;;;;;;;5.12;85.23;152676.31;5066547;28;20516;-85
2023/04/10 04:41:07;;;;;;;10.83;8.30;;;;;;;5.15;85.01;152685.38;5051443;28;21023;-84
2023/04/10 04:44:02;;;;;;;10.80;8.53;;;;;;;5.15;83.88;152684.06;5069177;28;20851;-84
2023/04/10 04:46:47;;;;;;;11.27;8.70;;;;;;;5.19;84.00;152694.41;5058168;28;20812;-84
2023/04/10 04:49:35;;;;;;;11.77;9.17;;;;;;;5.15;84.55;152684.06;5042113;28;20446;-85
2023/04/10 04:52:26;;;;;;;12.10;8.47;;;;;;;5.12;84.12;152676.31;5053018;28;20463;-85
2023/04/10 04:55:25;;;;;;;10.37;8.97;;;;;;;5.17;84.31;152690.50;4993297;28;20985;-85
2023/04/10 04:58:10;;;;;;;11.87;8.53;;;;;;;5.14;84.28;152681.47;5058083;28;20510;-85
2023/04/10 05:00:57;;;;;;;10.50;8.73;;;;;;;5.28;83.27;152717.59;5051833;28;20549;-85
2023/04/10 05:03:42;;;;;;;10.57;8.33;;;;;;;5.30;82.78;152722.72;5071487;28;20485;-84
2023/04/10 05:06:33;;;;;;;10.77;8.77;;;;;;;5.33;82.84;152730.47;5061940;28;20446;-84
2023/04/10 05:09:19;;;;;;;13.10;8.87;;;;;;;5.28;82.91;152718.88;5070012;28;20442;-84
2023/04/10 05:12:01;;;;;;;11.13;8.60;;;;;;;5.38;82.23;152743.34;5067800;28;20505;-84
2023/04/10 05:14:50;;;;;;;11.57;8.07;;;;;;;5.41;81.67;152751.09;5068864;28;20474;-84
2023/04/10 05:17:40;;;;;;;11.63;8.57;;;;;;;5.46;82.22;152764.00;5052753;28;20535;-84
2023/04/10 05:20:34;;;;;;;9.63;7.87;;;;;;;5.59;81.52;152796.25;5033132;28;20458;-85
2023/04/10 05:23:21;;;;;;;12.17;8.40;;;;;;;5.66;79.87;152815.59;5050985;28;20549;-85
2023/04/10 05:26:14;;;;;;;10.33;7.93;;;;;;;5.71;79.22;152828.47;5034847;28;20446;-85
2023/04/10 05:28:50;;;;;;;10.83;8.23;;;;;;;5.85;79.34;152864.63;5052257;28;20442;-84
2023/04/10 05:31:29;;;;;;;10.20;7.77;;;;;;;5.94;77.91;152886.56;5062537;28;21287;-84
2023/04/10 05:34:09;;;;;;;11.40;8.97;;;;;;;5.84;78.87;152860.72;5036028;28;20435;-85
2023/04/10 05:36:45;;;;;;;10.20;7.83;;;;;;;6.05;77.41;152916.25;5057036;28;20457;-85
2023/04/10 05:39:21;;;;;;;8.90;7.13;;;;;;;6.09;77.12;152925.22;5046313;28;20454;-85
2023/04/10 05:42:10;;;;;;;11.67;7.60;;;;;;;6.07;77.75;152920.09;5044538;28;20857;-84
2023/04/10 05:44:47;;;;;;;11.63;8.43;;;;;;;6.28;76.08;152974.28;5050895;28;20443;-85
2023/04/10 05:47:33;;;;;;;11.00;8.90;;;;;;;6.38;76.05;152998.81;5046284;28;20443;-84
2023/04/10 05:50:13;;;;;;;10.80;8.40;;;;;;;6.38;76.62;152998.81;5034944;28;20458;-84
2023/04/10 05:53:13;;;;;;;10.73;8.43;;;;;;;6.40;76.40;153003.97;5025854;28;20565;-84
2023/04/10 05:55:51;;;;;;;10.40;8.10;;;;;;;6.61;75.18;153059.47;5049815;28;20573;-84
2023/04/10 05:58:56;;;;;;;11.93;8.10;;;;;;;6.66;74.82;153071.06;5047176;28;20543;-85
2023/04/10 06:01:39;;;;;;;9.30;7.07;;;;;;;6.78;73.78;153102.03;5034496;28;20446;-84
2023/04/10 06:04:05;;;;;;;10.90;7.83;;;;;;;6.91;73.85;153135.59;5048013;28;20891;-84
2023/04/10 06:06:33;;;;;;;9.23;7.10;;;;;;;6.97;73.24;153149.78;5029559;28;20492;-85
2023/04/10 06:09:00;;;;;;;8.30;6.97;;;;;;;7.00;73.06;153157.53;5068618;28;20454;-84
2023/04/10 06:11:29;;;;;;;8.80;7.17;;;;;;;7.10;73.03;153184.66;5036433;28;20525;-84
2023/04/10 06:13:57;;;;;;;10.83;7.50;;;;;;;7.27;71.46;153227.28;5045607;28;20451;-85
2023/04/10 06:16:31;;;;;;;9.87;7.60;;;;;;;7.35;71.24;153247.94;5035336;28;20486;-85
2023/04/10 06:18:58;;;;;;;14.33;9.93;;;;;;;7.42;72.38;153266.00;5029392;28;20438;-85
2023/04/10 06:21:25;;;;;;;9.60;7.07;;;;;;;7.53;72.05;153293.13;5049785;28;20450;-85
2023/04/10 06:23:52;;;;;;;10.00;7.67;;;;;;;7.60;71.76;153311.25;5032429;28;20442;-84
2023/04/10 06:26:19;;;;;;;10.97;8.00;;;;;;;7.72;70.77;153342.22;5062743;28;20833;-84
2023/04/10 06:28:47;;;;;;;11.00;7.97;;;;;;;7.80;74.09;153364.19;5033133;28;20462;-85
2023/04/10 06:31:15;;;;;;;8.97;7.37;;;;;;;7.85;73.12;153375.81;5032504;28;20454;-85
2023/04/10 06:33:43;;;;;;;10.73;8.13;;;;;;;7.95;75.28;153402.94;5068607;28;21029;-85
2023/04/10 06:36:10;;;;;;;9.10;7.27;;;;;;;8.03;77.30;153422.31;5049673;28;20470;-85
2023/04/10 06:38:46;;;;;;;10.73;8.00;;;;;;;8.12;76.65;153444.28;5044223;28;20451;-84
2023/04/10 06:41:13;;;;;;;9.17;7.50;;;;;;;8.18;71.87;153461.06;5067195;28;20998;-85
2023/04/10 06:43:40;;;;;;;9.23;7.97;;;;;;;8.35;70.82;153505.06;5066685;28;20512;-85
2023/04/10 06:46:08;;;;;;;8.23;6.80;;;;;;;8.44;68.24;153528.34;5048334;28;20447;-85
2023/04/10 06:48:35;;;;;;;8.23;6.57;;;;;;;8.49;65.96;153541.28;5050157;28;20508;-85
2023/04/10 06:51:02;;;;;;;10.10;7.60;;;;;;;8.50;65.77;153543.84;5050020;28;20450;-85
2023/04/10 06:53:29;;;;;;;8.93;6.77;;;;;;;8.53;64.89;153551.59;5052255;28;20853;-85
2023/04/10 06:55:56;;;;;;;8.33;6.37;;;;;;;8.65;64.29;153580.03;5029864;28;20551;-85
2023/04/10 06:58:23;;;;;;;6.73;5.83;;;;;;;8.74;65.81;153603.28;5083193;28;20438;-85
2023/04/10 07:00:50;;;;;;;8.80;6.93;;;;;;;8.94;63.69;153656.34;5030909;28;20458;-85
2023/04/10 07:03:18;;;;;;;9.07;7.07;;;;;;;9.10;63.81;153696.41;5025554;28;20546;-85
2023/04/10 07:05:45;;;;;;;9.20;7.00;;;;;;;9.21;63.25;153724.88;5064704;28;20492;-85
2023/04/10 07:08:12;;;;;;;10.60;7.63;;;;;;;9.28;62.32;153742.97;5050432;28;20864;-85
2023/04/10 07:10:39;;;;;;;8.67;6.03;;;;;;;9.55;61.24;153811.53;5033288;28;20537;-84
2023/04/10 07:13:05;;;;;;;7.77;6.10;;;;;;;9.67;60.82;153843.88;5067737;28;20516;-85
2023/04/10 07:15:32;;;;;;;8.80;6.50;;;;;;;9.55;61.24;153811.53;5033894;28;20839;-85
2023/04/10 07:17:59;;;;;;;7.83;5.97;;;;;;;9.66;59.81;153841.25;5045835;28;20449;-85
2023/04/10 07:20:27;;;;;;;7.53;5.97;;;;;;;9.76;60.45;153867.19;5052557;28;21491;-85
2023/04/10 07:22:54;;;;;;;9.13;6.10;;;;;;;10.02;60.46;153933.16;5065675;28;20842;-84
2023/04/10 07:25:28;;;;;;;7.70;5.90;;;;;;;10.13;58.74;153961.69;5070014;28;20485;-85
2023/04/10 07:27:58;;;;;;;8.40;6.60;;;;;;;10.12;58.23;153959.09;5066656;28;20572;-85
2023/04/10 07:30:24;;;;;;;8.73;7.20;;;;;;;10.37;59.53;154023.84;5070888;28;20457;-85
2023/04/10 07:32:51;;;;;;;7.37;6.43;;;;;;;10.75;58.49;154120.91;5068656;28;20530;-85
2023/04/10 07:35:19;;;;;;;8.07;5.97;;;;;;;11.07;58.44;154201.25;5066665;28;20469;-85
2023/04/10 07:37:50;;;;;;;7.03;6.30;;;;;;;11.01;56.96;154188.25;5062497;28;20527;-86
2023/04/10 07:40:17;;;;;;;6.60;5.97;;;;;;;11.14;57.66;154220.66;5087997;28;20498;-86
2023/04/10 07:42:44;;;;;;;7.87;6.53;;;;;;;11.22;57.35;154241.41;5085519;28;20437;-86
2023/04/10 07:45:12;;;;;;;7.90;7.10;;;;;;;11.41;57.25;154290.59;5043455;28;20937;-86
2023/04/10 07:47:38;;;;;;;6.50;5.37;;;;;;;11.59;55.04;154337.28;5087806;28;20453;-86
2023/04/10 07:50:07;;;;;;;7.40;6.00;;;;;;;11.65;55.29;154351.50;5088502;28;20438;-85
2023/04/10 07:52:34;;;;;;;6.87;5.73;;;;;;;11.67;55.10;154356.72;5053053;28;20450;-86
2023/04/10 07:55:03;;;;;;;7.77;5.90;;;;;;;11.88;54.89;154411.19;5091161;28;20442;-86
2023/04/10 07:57:30;;;;;;;7.97;5.63;;;;;;;11.78;54.24;154383.97;5073497;28;20481;-86
2023/04/10 07:59:57;;;;;;;6.97;6.00;;;;;;;11.60;53.92;154338.53;5073145;28;20442;-86
2023/04/10 08:02:24;;;;;;;8.57;6.60;;;;;;;11.81;55.26;154391.75;5074726;28;20471;-86
2023/04/10 08:04:51;;;;;;;7.70;6.03;;;;;;;12.14;56.05;154478.59;5068879;28;20480;-86
2023/04/10 08:07:20;;;;;;;6.87;5.93;;;;;;;12.30;52.25;154518.78;5089756;28;20449;-87
2023/04/10 08:09:47;;;;;;;6.57;5.93;;;;;;;12.35;53.82;154530.44;5070126;28;20442;-86
2023/04/10 08:12:15;;;;;;;7.10;6.20;;;;;;;12.58;54.03;154590.06;5082022;28;20464;-86
2023/04/10 08:14:43;;;;;;;7.70;6.33;;;;;;;12.89;52.69;154670.53;5072648;28;20461;-87
2023/04/10 08:17:13;;;;;;;6.13;5.50;;;;;;;12.92;50.99;154678.25;5053621;28;20494;-87
2023/04/10 08:19:41;;;;;;;8.70;5.27;;;;;;;12.78;50.78;154643.28;5086126;28;20451;-87
2023/04/10 08:22:07;;;;;;;6.43;5.10;;;;;;;13.07;49.82;154717.25;5070925;28;20860;-86
2023/04/10 08:24:34;;;;;;;5.67;4.27;;;;;;;12.74;49.08;154632.88;5069756;28;20451;-87
2023/04/10 08:27:01;;;;;;;5.90;5.10;;;;;;;12.77;50.78;154640.66;5069688;28;20544;-86
2023/04/10 08:29:29;;;;;;;5.77;5.17;;;;;;;13.11;50.51;154727.63;5070357;28;20555;-86
2023/04/10 08:31:59;;;;;;;5.23;4.33;;;;;;;13.20;50.48;154749.69;5068904;28;21266;-87
2023/04/10 08:34:26;;;;;;;5.13;4.47;;;;;;;13.26;48.77;154765.28;5054890;28;20485;-87
2023/04/10 08:36:54;;;;;;;5.27;4.37;;;;;;;13.30;47.86;154776.94;5072280;28;20486;-87
2023/04/10 08:39:20;;;;;;;5.93;4.60;;;;;;;13.24;47.63;154761.34;5071576;28;20453;-87
2023/04/10 08:41:47;;;;;;;5.33;4.60;;;;;;;13.27;47.77;154767.84;5069803;28;20559;-87
2023/04/10 08:44:14;;;;;;;5.90;4.40;;;;;;;13.35;49.99;154788.59;5069087;28;20446;-87
2023/04/10 08:46:44;;;;;;;6.23;4.87;;;;;;;13.46;48.50;154815.84;5065484;28;20553;-87
2023/04/10 08:49:15;;;;;;;6.80;4.50;;;;;;;13.38;48.19;154797.69;5050189;28;20460;-87
2023/04/10 08:51:45;;;;;;;4.90;4.43;;;;;;;13.11;47.38;154727.63;5042580;28;20815;-87
2023/04/10 08:54:18;;;;;;;5.13;4.63;;;;;;;13.18;48.59;154744.50;5052274;28;21160;-87
2023/04/10 08:56:48;;;;;;;5.63;4.07;;;;;;;13.22;47.80;154756.19;5066021;28;20480;-87
2023/04/10 08:59:15;;;;;;;4.63;4.17;;;;;;;13.32;47.40;154782.13;5069068;28;20474;-87
2023/04/10 09:01:44;;;;;;;4.90;4.40;;;;;;;13.53;47.69;154834.06;5069464;28;20491;-87
2023/04/10 09:04:11;;;;;;;5.40;4.30;;;;;;;13.55;47.93;154840.53;5034370;28;21103;-86
2023/04/10 09:06:38;;;;;;;4.63;4.00;;;;;;;13.77;47.52;154896.31;5066811;28;20500;-87
2023/04/10 09:09:05;;;;;;;4.93;4.03;;;;;;;13.93;46.20;154937.84;5052361;28;20473;-87
2023/04/10 09:11:59;;;;;;;5.07;4.20;;;;;;;13.54;45.56;154837.91;5047480;28;20978;-87
2023/04/10 09:14:27;;;;;;;5.03;4.10;;;;;;;13.31;46.60;154779.56;5049484;28;20538;-88
2023/04/10 09:17:14;;;;;;;4.17;3.53;;;;;;;13.31;45.73;154779.56;5072452;28;20604;-87
2023/04/10 09:19:41;;;;;;;3.90;3.50;;;;;;;13.34;45.49;154787.28;5060671;28;20437;-87
2023/04/10 09:22:08;;;;;;;4.53;3.43;;;;;;;13.48;45.49;154821.03;5046706;28;20449;-87
2023/04/10 09:24:39;;;;;;;5.60;4.30;;;;;;;13.54;45.52;154837.91;5049176;28;20480;-87
2023/04/10 09:27:06;;;;;;;3.90;3.50;;;;;;;13.66;46.09;154867.78;5068112;28;20451;-87
2023/04/10 09:29:44;;;;;;;4.70;3.60;;;;;;;13.82;46.69;154909.34;5069235;28;20497;-87
2023/04/10 09:32:12;;;;;;;4.43;3.70;;;;;;;13.98;44.77;154952.13;5067129;28;20521;-87
2023/04/10 09:34:53;;;;;;;4.47;3.57;;;;;;;13.92;44.34;154935.28;5056132;28;20445;-86
2023/04/10 09:37:21;;;;;;;4.10;3.53;;;;;;;13.99;45.06;154953.44;5063232;28;20476;-87
2023/04/10 09:39:48;;;;;;;3.93;3.30;;;;;;;14.16;44.78;154996.31;5060692;28;20440;-86
2023/04/10 09:42:15;;;;;;;5.10;3.30;;;;;;;13.99;44.23;154954.75;5069218;28;20457;-87
2023/04/10 09:44:42;;;;;;;4.40;4.00;;;;;;;14.04;44.21;154966.41;5049998;28;20827;-87
2023/04/10 09:47:20;;;;;;;4.30;3.40;;;;;;;13.69;44.22;154875.53;5050486;28;20466;-87
2023/04/10 09:49:48;;;;;;;3.93;3.20;;;;;;;13.71;45.17;154880.78;5049229;28;20550;-87
2023/04/10 09:52:19;;;;;;;4.03;3.53;;;;;;;13.97;45.11;154948.25;5068447;28;20473;-87
2023/04/10 09:54:46;;;;;;;3.50;3.20;;;;;;;14.13;44.65;154989.81;5070247;28;20487;-87
2023/04/10 09:57:15;;;;;;;4.23;3.73;;;;;;;14.24;45.01;155018.38;5051597;28;20473;-87
2023/04/10 09:59:45;;;;;;;4.20;3.10;;;;;;;14.45;44.24;155071.69;5038796;28;20473;-87
2023/04/10 10:02:13;;;;;;;3.80;2.80;;;;;;;14.33;43.07;155040.47;5042452;28;21041;-87
2023/04/10 10:04:43;;;;;;;4.07;3.23;;;;;;;14.42;43.61;155065.19;5060681;28;20537;-87
2023/04/10 10:07:10;;;;;;;4.37;3.23;;;;;;;14.17;42.72;154998.88;5041467;28;20464;-87
2023/04/10 10:09:37;;;;;;;3.63;3.27;;;;;;;14.15;43.17;154993.69;5064188;28;20458;-87
2023/04/10 10:12:05;;;;;;;3.60;3.30;;;;;;;14.15;44.12;154993.69;5064845;28;20462;-87
2023/04/10 10:14:36;;;;;;;3.50;3.07;;;;;;;14.23;43.35;155014.47;5067514;28;20456;-87
2023/04/10 10:17:09;;;;;;;3.30;3.00;;;;;;;14.25;43.17;155020.94;5045750;28;20473;-87
2023/04/10 10:19:42;;;;;;;2.67;2.30;;;;;;;14.39;42.84;155057.38;5029848;28;20454;-87
2023/04/10 10:22:10;;;;;;;2.70;2.37;;;;;;;14.49;41.92;155083.34;5075078;28;20535;-87
2023/04/10 10:24:38;;;;;;;2.73;2.20;;;;;;;14.63;41.90;155119.72;5069507;28;20449;-88
2023/04/10 10:27:09;;;;;;;6.47;2.47;;;;;;;14.80;40.03;155161.31;5080446;28;20450;-88
2023/04/10 10:29:38;;;;;;;2.03;1.73;;;;;;;14.95;37.88;155200.25;5061000;28;20496;-88
2023/04/10 10:32:06;;;;;;;2.60;2.20;;;;;;;14.89;37.69;155184.66;5083100;28;21044;-87
2023/04/10 10:34:33;;;;;;;2.30;2.10;;;;;;;14.99;38.64;155210.63;5067524;28;20448;-87
2023/04/10 10:37:01;;;;;;;2.67;2.27;;;;;;;14.98;38.48;155208.06;5066458;28;21021;-88
2023/04/10 10:39:33;;;;;;;3.10;2.30;;;;;;;14.96;39.16;155204.13;5066625;28;20540;-88
2023/04/10 10:42:03;;;;;;;2.20;2.00;;;;;;;15.08;39.94;155234.03;5066657;28;20798;-88
2023/04/10 10:44:37;;;;;;;2.97;2.03;;;;;;;15.19;40.17;155262.63;5050335;28;20471;-88
2023/04/10 10:47:08;;;;;;;2.40;1.93;;;;;;;15.22;38.69;155270.44;5081584;28;21049;-86
2023/04/10 10:49:55;;;;;;;2.77;2.23;;;;;;;15.27;36.95;155283.44;5083396;28;20496;-86
2023/04/10 10:52:44;;;;;;;2.50;2.27;;;;;;;15.14;36.39;155250.91;5067575;28;20464;-87
2023/04/10 10:55:36;;;;;;;2.43;1.90;;;;;;;15.01;36.55;155217.13;5026716;28;20475;-86
2023/04/10 10:58:05;;;;;;;2.27;1.90;;;;;;;15.02;36.95;155219.75;5068577;28;20490;-87
2023/04/10 11:01:07;;;;;;;2.03;1.83;;;;;;;15.16;38.16;155254.81;5067869;28;20463;-87
2023/04/10 11:03:34;;;;;;;2.00;1.67;;;;;;;15.07;36.44;155231.41;5067057;28;20456;-88
2023/04/10 11:06:05;;;;;;;2.50;2.30;;;;;;;15.13;36.75;155248.34;5049122;28;20481;-88
2023/04/10 11:08:45;;;;;;;2.50;1.90;;;;;;;15.18;37.12;155261.31;5068630;28;20798;-87
2023/04/10 11:11:17;;;;;;;2.10;1.80;;;;;;;15.36;37.32;155305.47;5061859;28;20459;-86
2023/04/10 11:14:16;;;;;;;2.37;2.03;;;;;;;15.36;37.02;155306.78;5060440;28;20466;-87
2023/04/10 11:16:45;;;;;;;1.80;1.63;;;;;;;15.45;36.84;155330.19;5067547;28;20579;-87
2023/04/10 11:19:12;;;;;;;2.57;2.03;;;;;;;15.51;34.91;155345.88;5049455;28;20979;-86
2023/04/10 11:22:02;;;;;;;1.90;1.60;;;;;;;15.50;34.13;155341.94;5059811;28;20981;-87
2023/04/10 11:24:55;;;;;;;4.03;1.60;;;;;;;15.53;34.24;155349.75;5039839;28;20455;-87
2023/04/10 11:27:52;;;;;;;2.60;1.50;;;;;;;15.52;32.94;155348.44;5061095;28;20482;-87
2023/04/10 11:30:35;;;;;;;1.93;1.60;;;;;;;15.38;35.14;155311.97;5006116;28;21153;-87
2023/04/10 11:33:03;;;;;;;2.50;1.43;;;;;;;15.49;35.56;155340.63;5063639;28;20440;-87
2023/04/10 11:35:31;;;;;;;1.80;1.47;;;;;;;15.66;33.23;155383.53;5066022;28;20805;-87
2023/04/10 11:38:14;;;;;;;2.10;1.73;;;;;;;15.71;33.00;155397.84;5048325;28;20483;-87
2023/04/10 11:41:05;;;;;;;1.73;1.60;;;;;;;15.72;33.18;155400.47;5056744;28;20442;-88
2023/04/10 11:43:33;;;;;;;1.90;1.37;;;;;;;15.79;32.20;155418.63;5046221;28;20448;-87
2023/04/10 11:46:02;;;;;;;2.83;1.40;;;;;;;15.79;33.51;155418.63;5066616;28;20473;-87
2023/04/10 11:48:29;;;;;;;1.77;1.40;;;;;;;15.78;33.57;155414.72;5041040;28;20489;-88
2023/04/10 11:50:56;;;;;;;1.90;1.37;;;;;;;15.69;37.73;155392.66;5081950;28;20483;-88